createdAt,value
2018-01-24T00:00:32.426Z,0.37
2018-01-24T00:03:01.548Z,0.30
2018-01-24T00:05:29.955Z,0.50
2018-01-24T00:07:58.323Z,0.40
2018-01-24T00:10:26.689Z,0.50
2018-01-24T00:12:55.099Z,0.30
2018-01-24T00:15:23.459Z,0.60
2018-01-24T00:17:51.835Z,0.40
2018-01-24T00:28:55.856Z,0.30
2018-01-24T00:34:16.059Z,0.50
2018-01-24T00:36:45.184Z,0.33
2018-01-24T00:39:13.568Z,0.47
2018-01-24T00:41:43.098Z,0.37
2018-01-24T00:44:11.476Z,0.40
2018-01-24T00:46:39.876Z,0.30
2018-01-24T00:49:08.256Z,0.40
2018-01-24T00:51:36.639Z,0.30
2018-01-24T00:54:05.349Z,0.33
2018-01-24T00:56:34.500Z,0.30
2018-01-24T00:59:04.028Z,0.53
2018-01-24T01:01:34.248Z,0.40
2018-01-24T01:04:03.401Z,0.20
2018-01-24T01:06:32.156Z,0.30
2018-01-24T01:09:01.296Z,0.40
2018-01-24T01:11:29.661Z,0.30
2018-01-24T01:13:58.037Z,0.60
2018-01-24T01:16:26.403Z,0.30
2018-01-24T01:18:54.450Z,0.50
2018-01-24T01:21:23.580Z,0.30
2018-01-24T01:23:51.950Z,0.47
2018-01-24T01:26:20.326Z,0.40
2018-01-24T01:28:48.697Z,0.60
2018-01-24T01:31:17.090Z,0.30
2018-01-24T01:33:45.464Z,0.50
2018-01-24T01:36:14.871Z,0.50
2018-01-24T01:38:43.017Z,0.40
2018-01-24T01:41:11.464Z,0.50
2018-01-24T01:43:40.193Z,0.47
2018-01-24T01:46:09.448Z,0.40
2018-01-24T01:48:38.975Z,0.50
2018-01-24T01:51:07.943Z,0.50
2018-01-24T01:53:36.117Z,0.40
2018-01-24T01:56:04.508Z,0.40
2018-01-24T01:58:32.875Z,0.30
2018-01-24T02:01:01.073Z,0.40
2018-01-24T02:03:30.598Z,0.30
2018-01-24T02:05:58.975Z,0.50
2018-01-24T02:08:27.375Z,0.40
2018-01-24T02:10:55.746Z,0.40
2018-01-24T02:13:24.112Z,0.50
2018-01-24T02:15:52.499Z,0.30
2018-01-24T02:18:20.880Z,0.40
2018-01-24T02:20:49.543Z,0.60
2018-01-24T02:23:17.914Z,0.43
2018-01-24T02:25:46.872Z,0.40
2018-01-24T02:28:15.267Z,0.40
2018-01-24T02:30:43.662Z,0.40
2018-01-24T02:33:12.816Z,0.50
2018-01-24T02:35:42.320Z,0.40
2018-01-24T02:51:31.191Z,0.70
2018-01-24T02:53:59.721Z,0.30
2018-01-24T02:56:28.355Z,0.50
2018-01-24T02:58:56.717Z,0.40
2018-01-24T03:01:25.089Z,0.43
2018-01-24T03:03:53.473Z,0.30
2018-01-24T03:06:21.848Z,0.30
2018-01-24T03:08:52.671Z,0.60
2018-01-24T03:11:22.064Z,0.40
2018-01-24T03:13:51.449Z,0.53
2018-01-24T03:16:19.844Z,0.37
2018-01-24T03:18:49.231Z,0.30
2018-01-24T03:21:17.619Z,0.40
2018-01-24T03:23:46.001Z,0.30
2018-01-24T03:26:14.375Z,0.33
2018-01-24T03:28:42.748Z,0.40
2018-01-24T03:31:11.121Z,0.50
2018-01-24T03:33:39.752Z,0.50
2018-01-24T03:36:08.124Z,0.40
2018-01-24T03:38:36.491Z,0.30
2018-01-24T03:41:04.889Z,0.47
2018-01-24T03:43:33.271Z,0.50
2018-01-24T03:46:02.449Z,0.50
2018-01-24T03:48:30.820Z,0.30
2018-01-24T03:50:59.197Z,0.30
2018-01-24T03:53:27.575Z,0.40
2018-01-24T03:55:55.957Z,0.30
2018-01-24T03:58:24.376Z,0.30
2018-01-24T04:00:53.513Z,0.30
2018-01-24T04:03:21.888Z,0.30
2018-01-24T04:05:50.265Z,0.60
2018-01-24T04:08:18.631Z,0.30
2018-01-24T04:10:47.028Z,0.30
2018-01-24T04:13:15.397Z,0.60
2018-01-24T04:15:43.763Z,0.40
2018-01-24T04:18:12.147Z,0.30
2018-01-24T04:20:40.526Z,0.30
2018-01-24T04:23:08.928Z,0.37
2018-01-24T04:25:37.316Z,0.50
2018-01-24T04:28:05.682Z,0.40
2018-01-24T04:30:34.072Z,0.40
2018-01-24T04:33:02.513Z,0.30
2018-01-24T04:35:30.897Z,0.40
2018-01-24T04:37:59.375Z,0.40
2018-01-24T04:40:27.742Z,0.40
2018-01-24T04:42:56.120Z,0.40
2018-01-24T04:45:24.305Z,0.50
2018-01-24T04:47:52.702Z,0.50
2018-01-24T04:50:20.876Z,0.33
2018-01-24T04:52:49.254Z,0.30
2018-01-24T04:55:17.641Z,0.40
2018-01-24T04:57:45.852Z,0.40
2018-01-24T05:00:14.221Z,0.30
2018-01-24T05:02:43.175Z,0.30
2018-01-24T05:05:11.349Z,0.40
2018-01-24T05:07:39.563Z,0.40
2018-01-24T05:10:08.520Z,0.30
2018-01-24T05:12:36.734Z,0.40
2018-01-24T05:15:05.689Z,0.30
2018-01-24T05:17:33.877Z,0.37
2018-01-24T05:20:02.096Z,0.40
2018-01-24T05:22:30.286Z,0.30
2018-01-24T05:24:59.810Z,0.30
2018-01-24T05:27:28.370Z,0.30
2018-01-24T05:29:57.772Z,0.50
2018-01-24T05:32:26.154Z,0.57
2018-01-24T05:34:54.516Z,0.40
2018-01-24T05:37:23.012Z,0.50
2018-01-24T05:39:51.409Z,0.20
2018-01-24T05:42:21.579Z,0.30
2018-01-24T05:50:38.330Z,0.30
2018-01-24T05:53:06.718Z,0.30
2018-01-24T05:55:36.213Z,0.50
2018-01-24T05:58:05.352Z,0.60
2018-01-24T06:00:33.752Z,0.30
2018-01-24T06:03:02.122Z,0.30
2018-01-24T06:05:30.516Z,0.30
2018-01-24T06:07:58.884Z,0.40
2018-01-24T06:10:27.246Z,0.30
2018-01-24T06:12:55.639Z,0.30
2018-01-24T06:15:24.009Z,0.30
2018-01-24T06:17:52.417Z,0.30
2018-01-24T06:20:20.849Z,0.40
2018-01-24T06:22:50.002Z,0.30
2018-01-24T06:25:19.166Z,0.30
2018-01-24T06:27:47.356Z,0.40
2018-01-24T06:30:15.748Z,0.37
2018-01-24T06:32:44.892Z,0.30
2018-01-24T06:35:13.272Z,0.40
2018-01-24T06:37:41.651Z,0.30
2018-01-24T06:40:10.102Z,0.30
2018-01-24T06:42:38.489Z,0.20
2018-01-24T06:45:08.339Z,0.40
2018-01-24T06:47:36.719Z,0.30
2018-01-24T06:50:05.097Z,0.40
2018-01-24T06:52:33.460Z,0.30
2018-01-24T06:55:02.159Z,0.30
2018-01-24T06:57:30.528Z,0.30
2018-01-24T06:59:58.900Z,0.30
2018-01-24T07:02:27.292Z,0.20
2018-01-24T07:04:55.664Z,0.40
2018-01-24T07:07:24.284Z,0.60
2018-01-24T07:09:53.422Z,0.40
2018-01-24T07:12:32.943Z,0.30
2018-01-24T07:15:01.309Z,0.37
2018-01-24T07:17:30.441Z,0.27
2018-01-24T07:19:59.069Z,0.27
2018-01-24T07:22:27.459Z,0.30
2018-01-24T07:24:56.620Z,0.40
2018-01-24T07:27:24.988Z,0.40
2018-01-24T07:29:53.354Z,0.30
2018-01-24T07:32:21.729Z,0.30
2018-01-24T07:34:50.096Z,0.40
2018-01-24T07:37:18.478Z,0.30
2018-01-24T07:39:46.844Z,0.40
2018-01-24T07:42:15.471Z,0.30
2018-01-24T07:44:43.847Z,0.30
2018-01-24T07:47:12.212Z,0.40
2018-01-24T07:49:40.595Z,0.30
2018-01-24T07:52:08.971Z,0.53
2018-01-24T07:54:37.349Z,0.40
2018-01-24T07:57:05.722Z,0.40
2018-01-24T07:59:33.920Z,0.30
2018-01-24T08:02:02.293Z,0.30
2018-01-24T08:04:30.492Z,0.30
2018-01-24T08:06:59.651Z,0.30
2018-01-24T08:09:27.863Z,0.30
2018-01-24T08:11:57.388Z,0.30
2018-01-24T08:14:26.528Z,0.50
2018-01-24T08:16:55.017Z,0.30
2018-01-24T08:19:23.446Z,0.40
2018-01-24T08:21:51.829Z,0.30
2018-01-24T08:24:20.220Z,0.50
2018-01-24T08:26:48.600Z,0.40
2018-01-24T08:29:16.984Z,0.30
2018-01-24T08:31:45.399Z,0.33
2018-01-24T08:34:14.040Z,0.30
2018-01-24T08:36:42.436Z,0.37
2018-01-24T08:39:10.808Z,0.30
2018-01-24T08:41:39.203Z,0.30
2018-01-24T08:44:07.585Z,0.30
2018-01-24T08:46:35.978Z,0.50
2018-01-24T08:49:04.370Z,0.30
2018-01-24T08:51:33.925Z,0.50
2018-01-24T08:54:02.302Z,0.30
2018-01-24T08:56:30.729Z,0.40
2018-01-24T08:58:59.110Z,0.40
2018-01-24T09:01:27.503Z,0.40
2018-01-24T09:03:56.660Z,0.40
2018-01-24T09:06:25.034Z,0.80
2018-01-24T09:08:53.416Z,0.40
2018-01-24T09:11:21.801Z,0.50
2018-01-24T09:13:50.180Z,0.40
2018-01-24T09:16:18.573Z,0.40
2018-01-24T09:18:46.942Z,0.40
2018-01-24T09:21:15.343Z,0.30
2018-01-24T09:23:44.979Z,0.50
2018-01-24T09:26:14.492Z,2.40
2018-01-24T09:28:42.897Z,0.30
2018-01-24T09:31:11.274Z,0.50
2018-01-24T09:33:40.841Z,0.40
2018-01-24T09:36:09.222Z,0.60
2018-01-24T09:38:37.613Z,0.60
2018-01-24T09:41:05.981Z,0.50
2018-01-24T09:43:34.644Z,0.33
2018-01-24T09:46:03.847Z,0.40
2018-01-24T09:48:32.210Z,0.30
2018-01-24T09:51:01.384Z,0.50
2018-01-24T09:53:29.756Z,0.43
2018-01-24T09:55:58.137Z,0.40
2018-01-24T09:58:26.522Z,0.50
2018-01-24T10:00:54.584Z,0.40
2018-01-24T10:03:22.955Z,0.37
2018-01-24T10:05:51.356Z,0.40
2018-01-24T10:08:19.777Z,0.30
2018-01-24T10:10:48.166Z,0.30
2018-01-24T10:13:16.560Z,0.30
2018-01-24T10:15:44.840Z,0.30
2018-01-24T10:18:14.140Z,0.60
2018-01-24T10:20:42.540Z,0.30
2018-01-24T10:23:10.908Z,0.30
2018-01-24T10:25:39.296Z,0.40
2018-01-24T10:28:07.669Z,0.40
2018-01-24T10:30:36.047Z,0.43
2018-01-24T10:33:04.422Z,0.30
2018-01-24T10:35:32.802Z,0.40
2018-01-24T10:38:02.376Z,0.30
2018-01-24T10:40:31.357Z,0.50
2018-01-24T10:42:59.747Z,0.30
2018-01-24T10:45:29.076Z,0.30
2018-01-24T10:47:57.470Z,0.40
2018-01-24T10:50:26.617Z,0.40
2018-01-24T10:52:55.000Z,0.40
2018-01-24T10:55:25.497Z,0.50
2018-01-24T10:57:53.989Z,0.50
2018-01-24T11:00:22.357Z,0.30
2018-01-24T11:02:50.722Z,0.30
2018-01-24T11:05:19.859Z,0.40
2018-01-24T11:07:50.456Z,0.30
2018-01-24T11:10:19.982Z,0.43
2018-01-24T11:12:48.881Z,0.40
2018-01-24T11:15:17.297Z,0.40
2018-01-24T11:17:48.026Z,0.77
2018-01-24T11:20:16.509Z,0.50
2018-01-24T11:22:45.029Z,0.40
2018-01-24T11:25:14.411Z,0.40
2018-01-24T11:27:43.700Z,0.50
2018-01-24T11:30:12.063Z,0.40
2018-01-24T11:32:40.460Z,0.40
2018-01-24T11:35:08.836Z,0.30
2018-01-24T11:37:37.221Z,0.60
2018-01-24T11:40:05.261Z,0.40
2018-01-24T11:42:34.155Z,0.40
2018-01-24T11:45:02.727Z,0.40
2018-01-24T11:47:31.122Z,0.40
2018-01-24T11:49:59.505Z,0.40
2018-01-24T11:52:27.876Z,0.37
2018-01-24T11:54:56.273Z,0.33
2018-01-24T11:57:24.646Z,0.30
2018-01-24T11:59:53.039Z,0.40
2018-01-24T12:02:22.187Z,0.50
2018-01-24T12:04:50.565Z,0.40
2018-01-24T12:07:18.956Z,0.30
2018-01-24T12:09:48.328Z,0.40
2018-01-24T12:12:17.859Z,0.30
2018-01-24T12:14:46.239Z,0.40
2018-01-24T12:17:15.105Z,0.30
2018-01-24T12:19:43.496Z,0.50
2018-01-24T12:22:11.884Z,0.40
2018-01-24T12:24:40.272Z,0.40
2018-01-24T12:27:08.669Z,0.70
2018-01-24T12:29:37.235Z,0.40
2018-01-24T12:32:05.638Z,0.40
2018-01-24T12:34:35.160Z,0.40
2018-01-24T12:37:03.530Z,0.30
2018-01-24T12:39:32.917Z,0.40
2018-01-24T12:42:02.073Z,0.40
2018-01-24T12:44:30.469Z,0.40
2018-01-24T12:46:58.854Z,0.30
2018-01-24T12:49:27.237Z,0.40
2018-01-24T12:51:55.633Z,0.40
2018-01-24T12:54:24.779Z,0.30
2018-01-24T12:56:53.142Z,0.50
2018-01-24T12:59:21.522Z,0.30
2018-01-24T13:01:49.974Z,0.30
2018-01-24T13:04:18.380Z,0.40
2018-01-24T13:06:46.768Z,0.30
2018-01-24T13:09:15.160Z,0.30
2018-01-24T13:11:43.592Z,0.40
2018-01-24T13:14:12.145Z,0.37
2018-01-24T13:16:40.541Z,0.50
2018-01-24T13:19:09.700Z,0.40
2018-01-24T13:21:38.137Z,0.30
2018-01-24T13:24:06.508Z,0.33
2018-01-24T13:26:35.689Z,0.40
2018-01-24T13:29:08.033Z,0.40
2018-01-24T13:31:37.103Z,0.40
2018-01-24T13:34:06.635Z,0.60
2018-01-24T13:36:35.664Z,0.43
2018-01-24T13:39:03.504Z,0.40
2018-01-24T13:41:31.910Z,0.57
2018-01-24T13:44:00.293Z,0.43
2018-01-24T13:46:28.681Z,0.43
2018-01-24T13:48:57.108Z,0.40
2018-01-24T13:51:25.486Z,0.30
2018-01-24T13:53:53.862Z,0.37
2018-01-24T13:56:22.316Z,0.47
2018-01-24T13:58:50.692Z,0.63
2018-01-24T14:01:19.159Z,0.50
2018-01-24T14:03:47.577Z,0.37
2018-01-24T14:06:15.957Z,0.40
2018-01-24T14:08:44.341Z,0.67
2018-01-24T14:11:13.097Z,0.40
2018-01-24T14:13:41.520Z,0.40
2018-01-24T14:16:10.675Z,0.47
2018-01-24T14:18:38.900Z,0.50
2018-01-24T14:21:08.138Z,0.40
2018-01-24T14:23:36.593Z,0.50
2018-01-24T14:26:05.385Z,0.70
2018-01-24T14:28:34.098Z,0.53
2018-01-24T14:31:02.488Z,0.40
2018-01-24T14:33:30.925Z,0.40
2018-01-24T14:35:59.468Z,0.50
2018-01-24T14:38:27.855Z,0.47
2018-01-24T14:40:57.020Z,0.40
2018-01-24T14:43:25.393Z,0.40
2018-01-24T14:45:53.802Z,0.37
2018-01-24T14:48:22.196Z,0.47
2018-01-24T14:50:51.360Z,0.40
2018-01-24T14:56:10.577Z,0.40
2018-01-24T14:58:39.746Z,0.50
2018-01-24T15:01:08.116Z,0.30
2018-01-24T15:03:36.557Z,0.80
2018-01-24T15:06:04.943Z,0.67
2018-01-24T15:08:34.116Z,0.40
2018-01-24T15:11:03.044Z,0.50
2018-01-24T15:13:31.457Z,0.57
2018-01-24T15:16:00.100Z,0.50
2018-01-24T15:18:28.527Z,0.77
2018-01-24T15:20:57.824Z,0.50
2018-01-24T15:23:26.202Z,0.40
2018-01-24T15:25:54.576Z,0.80
2018-01-24T15:28:22.956Z,0.50
2018-01-24T15:30:51.363Z,0.57
2018-01-24T15:33:20.518Z,0.70
2018-01-24T15:35:48.926Z,0.40
2018-01-24T15:38:18.107Z,0.60
2018-01-24T15:40:46.489Z,0.53
2018-01-24T15:43:14.873Z,0.40
2018-01-24T15:45:43.250Z,0.60
2018-01-24T15:48:11.620Z,0.60
2018-01-24T15:50:40.158Z,0.63
2018-01-24T15:53:08.543Z,0.50
2018-01-24T15:55:37.203Z,0.40
2018-01-24T15:58:05.572Z,0.60
2018-01-24T16:00:34.774Z,0.40
2018-01-24T16:03:03.926Z,0.40
2018-01-24T16:05:32.292Z,0.50
2018-01-24T16:08:00.686Z,0.40
2018-01-24T16:10:29.253Z,0.30
2018-01-24T16:12:57.622Z,0.40
2018-01-24T16:15:26.019Z,0.43
2018-01-24T16:17:54.400Z,0.40
2018-01-24T16:20:22.788Z,0.50
2018-01-24T16:22:51.962Z,0.60
2018-01-24T16:25:20.717Z,0.60
2018-01-24T16:27:49.087Z,0.60
2018-01-24T16:30:18.234Z,0.60
2018-01-24T16:32:46.655Z,0.70
2018-01-24T16:35:15.835Z,0.70
2018-01-24T16:37:44.999Z,0.40
2018-01-24T16:40:13.416Z,0.60
2018-01-24T16:42:42.585Z,0.70
2018-01-24T16:45:10.983Z,0.73
2018-01-24T16:47:39.427Z,0.50
2018-01-24T16:50:07.532Z,0.97
2018-01-24T16:52:36.697Z,0.90
2018-01-24T16:55:05.088Z,0.73
2018-01-24T16:57:33.473Z,0.70
2018-01-24T17:00:01.915Z,0.90
2018-01-24T17:02:30.281Z,0.40
2018-01-24T17:04:58.961Z,0.80
2018-01-24T17:07:27.324Z,0.67
2018-01-24T17:09:56.472Z,0.40
2018-01-24T17:12:24.872Z,0.60
2018-01-24T17:14:53.273Z,0.80
2018-01-24T17:17:22.479Z,1.03
2018-01-24T17:19:51.647Z,0.90
2018-01-24T17:22:20.764Z,0.67
2018-01-24T17:24:49.180Z,0.70
2018-01-24T17:27:17.565Z,1.03
2018-01-24T17:29:45.979Z,0.90
2018-01-24T17:32:14.369Z,1.03
2018-01-24T17:34:42.778Z,0.63
2018-01-24T17:37:11.620Z,0.70
2018-01-24T17:39:40.008Z,0.77
2018-01-24T17:42:08.477Z,1.03
2018-01-24T17:44:37.752Z,0.77
2018-01-24T17:47:06.285Z,0.60
2018-01-24T17:49:34.731Z,1.00
2018-01-24T17:52:03.124Z,0.80
2018-01-24T17:54:32.075Z,0.67
2018-01-24T17:57:00.496Z,0.90
2018-01-24T17:59:28.894Z,0.70
2018-01-24T18:01:58.036Z,1.00
2018-01-24T18:04:26.443Z,1.27
2018-01-24T18:06:54.974Z,1.00
2018-01-24T18:09:23.363Z,1.00
2018-01-24T18:11:51.799Z,0.70
2018-01-24T18:14:21.349Z,0.80
2018-01-24T18:16:49.722Z,1.50
2018-01-24T18:19:18.140Z,1.30
2018-01-24T18:21:46.562Z,1.33
2018-01-24T18:24:15.005Z,0.90
2018-01-24T18:26:43.476Z,0.90
2018-01-24T18:29:11.942Z,0.90
2018-01-24T18:31:40.358Z,1.13
2018-01-24T18:34:09.637Z,0.60
2018-01-24T18:36:40.654Z,1.00
2018-01-24T18:39:09.077Z,1.37
2018-01-24T18:41:38.164Z,1.20
2018-01-24T18:44:06.554Z,0.90
2018-01-24T18:46:35.728Z,0.83
2018-01-24T18:49:04.124Z,0.87
2018-01-24T18:51:33.822Z,1.10
2018-01-24T18:54:02.244Z,1.10
2018-01-24T18:56:30.286Z,1.30
2018-01-24T18:58:59.457Z,0.90
2018-01-24T19:01:27.944Z,0.77
2018-01-24T19:03:56.132Z,0.73
2018-01-24T19:06:25.288Z,0.70
2018-01-24T19:08:53.655Z,1.10
2018-01-24T19:11:22.087Z,0.90
2018-01-24T19:13:50.496Z,1.73
2018-01-24T19:16:18.906Z,0.90
2018-01-24T19:18:47.336Z,0.67
2018-01-24T19:21:16.601Z,1.23
2018-01-24T19:23:45.001Z,1.27
2018-01-24T19:26:13.466Z,1.30
2018-01-24T19:28:41.896Z,1.23
2018-01-24T19:31:10.281Z,1.10
2018-01-24T19:33:40.399Z,0.97
2018-01-24T19:36:08.772Z,1.33
2018-01-24T19:38:37.066Z,1.17
2018-01-24T19:41:05.258Z,1.53
2018-01-24T19:43:33.300Z,1.33
2018-01-24T19:46:01.691Z,1.10
2018-01-24T19:48:30.064Z,1.40
2018-01-24T19:50:58.493Z,1.27
2018-01-24T19:53:26.879Z,1.60
2018-01-24T19:55:56.049Z,2.90
2018-01-24T19:58:24.489Z,1.73
2018-01-24T20:00:52.720Z,0.90
2018-01-24T20:03:21.931Z,1.77
2018-01-24T20:05:51.065Z,1.37
2018-01-24T20:08:19.440Z,1.50
2018-01-24T20:10:47.864Z,1.60
2018-01-24T20:13:16.248Z,1.30
2018-01-24T20:15:44.684Z,1.07
2018-01-24T20:18:13.087Z,1.33
2018-01-24T20:20:42.958Z,1.37
2018-01-24T20:23:11.372Z,1.13
2018-01-24T20:25:39.759Z,1.00
2018-01-24T20:28:08.751Z,1.40
2018-01-24T20:30:37.145Z,1.00
2018-01-24T20:33:05.366Z,1.80
2018-01-24T20:35:33.821Z,1.40
2018-01-24T20:38:03.327Z,1.20
2018-01-24T20:40:32.456Z,1.07
2018-01-24T20:43:00.842Z,1.40
2018-01-24T20:45:29.252Z,2.00
2018-01-24T20:47:57.647Z,1.20
2018-01-24T20:50:27.620Z,1.23
2018-01-24T20:52:59.279Z,1.77
2018-01-24T20:55:27.687Z,1.17
2018-01-24T20:57:56.965Z,1.57
2018-01-24T21:00:26.261Z,1.00
2018-01-24T21:02:54.658Z,1.03
2018-01-24T21:05:23.057Z,1.10
2018-01-24T21:07:52.211Z,1.17
2018-01-24T21:10:21.366Z,2.20
2018-01-24T21:12:49.995Z,1.00
2018-01-24T21:15:18.366Z,1.10
2018-01-24T21:17:46.740Z,1.60
2018-01-24T21:20:15.220Z,1.10
2018-01-24T21:22:43.588Z,1.53
2018-01-24T21:25:12.751Z,1.23
2018-01-24T21:27:41.876Z,1.27
2018-01-24T21:30:21.600Z,0.93
2018-01-24T21:33:01.392Z,0.83
2018-01-24T21:35:41.048Z,1.10
2018-01-24T21:38:10.471Z,1.50
2018-01-24T21:40:39.634Z,1.83
2018-01-24T21:43:09.140Z,1.30
2018-01-24T21:45:37.521Z,1.40
2018-01-24T21:48:05.910Z,0.97
2018-01-24T21:50:34.284Z,0.90
2018-01-24T21:53:03.449Z,0.90
2018-01-24T21:55:31.828Z,2.00
2018-01-24T21:58:00.215Z,1.50
2018-01-24T22:00:28.680Z,1.33
2018-01-24T22:02:57.051Z,0.83
2018-01-24T22:05:25.426Z,1.30
2018-01-24T22:07:53.801Z,1.40
2018-01-24T22:10:22.187Z,0.70
2018-01-24T22:12:50.561Z,1.47
2018-01-24T22:15:18.948Z,1.53
2018-01-24T22:17:48.159Z,1.13
2018-01-24T22:20:16.540Z,1.20
2018-01-24T22:22:44.919Z,0.97
2018-01-24T22:25:13.287Z,0.90
2018-01-24T22:27:41.685Z,1.43
2018-01-24T22:30:10.816Z,1.10
2018-01-24T22:32:39.999Z,1.17
2018-01-24T22:35:08.393Z,1.07
2018-01-24T22:37:37.536Z,0.70
2018-01-24T22:40:05.911Z,1.07
2018-01-24T22:42:34.273Z,0.77
2018-01-24T22:45:02.468Z,0.87
2018-01-24T22:47:31.608Z,1.07
2018-01-24T22:50:00.784Z,0.97
2018-01-24T22:52:29.168Z,0.53
2018-01-24T22:54:57.537Z,0.80
2018-01-24T22:57:25.913Z,1.10
2018-01-24T22:59:54.280Z,1.37
2018-01-24T23:02:22.676Z,0.80
2018-01-24T23:04:51.040Z,1.50
2018-01-24T23:07:19.432Z,1.00
2018-01-24T23:09:47.804Z,1.13
2018-01-24T23:12:16.176Z,1.00
2018-01-24T23:14:44.555Z,1.00
2018-01-24T23:17:12.923Z,0.83
2018-01-24T23:19:41.303Z,1.13
2018-01-24T23:22:09.678Z,0.77
2018-01-24T23:24:38.059Z,0.60
2018-01-24T23:27:06.429Z,1.23
2018-01-24T23:29:34.849Z,1.20
2018-01-24T23:32:04.004Z,1.33
2018-01-24T23:34:32.418Z,1.40
2018-01-24T23:37:00.957Z,1.00
2018-01-24T23:39:29.362Z,1.37
2018-01-24T23:41:57.783Z,1.13
2018-01-24T23:44:26.173Z,0.90
2018-01-24T23:46:54.535Z,1.27
2018-01-24T23:49:23.683Z,0.83
2018-01-24T23:51:52.056Z,0.90
2018-01-24T23:54:20.244Z,1.00
2018-01-24T23:56:48.619Z,1.03
2018-01-24T23:59:17.019Z,1.00
